Time;durP1;ratioP1;P1;durP2;ratioP2;P2;SDS_P1;SDS_P2;PMS_P1;PMS_P2;Temp;Humidity;BMP_temperature;BMP_pressure;BME280_temperature;BME280_humidity;BME280_pressure;Samples;Min_cycle;Max_cycle;Signal;HPM_P1;HPM_P2
2023/04/10 00:00:56;;;;;;;29.83;18.85;;;;;;;10.62;47.80;100496.75;4953748;28;20646;-84
2023/04/10 00:03:23;;;;;;;32.67;20.05;;;;;;;10.62;47.97;100499.41;4970123;28;20113;-84
2023/04/10 00:05:53;;;;;;;36.83;20.52;;;;;;;10.61;47.87;100490.63;4970568;28;20510;-84
2023/04/10 00:08:22;;;;;;;31.63;19.80;;;;;;;10.59;47.98;100495.13;4970835;28;20150;-83
2023/04/10 00:10:49;;;;;;;32.03;19.30;;;;;;;10.60;48.01;100488.06;4970917;28;20059;-84
2023/04/10 00:13:15;;;;;;;30.40;20.30;;;;;;;10.60;48.07;100485.44;4970783;28;20158;-83
2023/04/10 00:15:42;;;;;;;33.03;19.13;;;;;;;10.58;48.24;100479.41;4970670;28;20065;-84
2023/04/10 00:18:09;;;;;;;30.85;19.35;;;;;;;10.57;48.17;100475.06;4970792;28;20069;-84
2023/04/10 00:20:35;;;;;;;28.65;18.58;;;;;;;10.56;48.16;100482.09;4970975;28;20066;-83
2023/04/10 00:23:02;;;;;;;30.27;19.52;;;;;;;10.57;48.32;100475.06;4970956;28;20449;-83
2023/04/10 00:25:29;;;;;;;30.73;19.90;;;;;;;10.55;48.36;100468.06;4971220;28;20058;-83
2023/04/10 00:27:55;;;;;;;29.98;19.35;;;;;;;10.55;48.29;100467.22;4959450;28;20118;-83
2023/04/10 00:30:22;;;;;;;33.03;20.30;;;;;;;10.56;48.26;100466.31;4975957;28;20062;-83
2023/04/10 00:32:48;;;;;;;31.00;19.27;;;;;;;10.55;48.45;100452.28;4959957;28;20058;-83
2023/04/10 00:35:15;;;;;;;33.38;19.38;;;;;;;10.57;48.29;100456.63;4976779;28;20531;-83
2023/04/10 00:37:42;;;;;;;30.70;19.20;;;;;;;10.55;48.47;100449.63;4977056;28;20054;-83
2023/04/10 00:40:09;;;;;;;30.65;19.88;;;;;;;10.54;48.46;100442.69;4977233;28;20094;-83
2023/04/10 00:42:36;;;;;;;32.15;19.90;;;;;;;10.55;48.63;100441.75;4976930;28;20066;-83
2023/04/10 00:45:02;;;;;;;30.98;19.15;;;;;;;10.53;48.53;100437.47;4959538;28;20063;-83
2023/04/10 00:47:30;;;;;;;31.08;18.52;;;;;;;10.52;48.47;100439.28;4976750;28;20142;-83
2023/04/10 00:49:56;;;;;;;33.33;20.30;;;;;;;10.52;48.70;100428.75;4977137;28;20054;-83
2023/04/10 00:52:25;;;;;;;29.55;20.38;;;;;;;10.48;48.60;100432.44;4975450;28;20058;-83
2023/04/10 00:54:51;;;;;;;30.38;18.58;;;;;;;10.48;48.78;100437.69;4976766;28;20055;-83
2023/04/10 00:57:18;;;;;;;28.38;18.92;;;;;;;10.48;48.58;100439.47;4976557;28;20109;-83
2023/04/10 00:59:45;;;;;;;27.60;17.73;;;;;;;10.46;48.82;100431.63;4976945;28;20472;-83
2023/04/10 01:02:12;;;;;;;28.17;18.73;;;;;;;10.46;48.66;100429.00;4977096;28;20068;-83
2023/04/10 01:04:41;;;;;;;34.40;19.92;;;;;;;10.45;48.84;100427.31;4977057;28;20074;-83
2023/04/10 01:07:49;;;;;;;31.27;19.45;;;;;;;10.40;49.12;100435.38;4976292;28;20051;-84
2023/04/10 01:10:33;;;;;;;34.47;20.95;;;;;;;10.41;49.26;100425.72;4960123;28;20117;-84
2023/04/10 01:13:15;;;;;;;28.50;17.95;;;;;;;10.39;49.24;100427.56;4976718;28;20069;-83
2023/04/10 01:16:19;;;;;;;31.17;19.57;;;;;;;10.39;49.37;100427.56;4976632;28;20054;-84
2023/04/10 01:18:58;;;;;;;27.52;18.13;;;;;;;10.38;49.38;100425.84;4966847;28;20408;-84
2023/04/10 01:21:28;;;;;;;31.15;18.85;;;;;;;10.40;48.77;100418.75;4959844;28;20063;-84
2023/04/10 01:24:20;;;;;;;32.72;19.48;;;;;;;10.35;49.08;100420.72;4976708;28;20059;-84
2023/04/10 01:27:19;;;;;;;30.80;19.73;;;;;;;10.34;49.25;100421.63;4959018;28;20067;-84
2023/04/10 01:29:51;;;;;;;32.35;19.85;;;;;;;10.34;49.17;100416.38;4976801;28;20059;-84
2023/04/10 01:32:21;;;;;;;31.20;19.95;;;;;;;10.32;49.38;100419.06;4976642;28;20062;-84
2023/04/10 01:34:54;;;;;;;32.25;18.40;;;;;;;10.30;49.54;100420.94;4976349;28;20141;-83
2023/04/10 01:37:29;;;;;;;33.88;20.00;;;;;;;10.28;49.51;100420.16;4974966;28;20504;-83
2023/04/10 01:40:02;;;;;;;32.60;20.33;;;;;;;10.28;49.62;100409.63;4973683;28;20054;-84
2023/04/10 01:42:31;;;;;;;29.95;18.80;;;;;;;10.28;49.38;100404.38;4973509;28;20066;-84
2023/04/10 01:45:00;;;;;;;30.90;19.23;;;;;;;10.27;49.53;100400.88;4973379;28;20069;-84
2023/04/10 01:47:30;;;;;;;33.35;20.77;;;;;;;10.25;49.29;100402.72;4973052;28;20076;-84
2023/04/10 01:50:00;;;;;;;31.50;20.35;;;;;;;10.23;49.29;100399.31;4973536;28;20398;-84
2023/04/10 01:52:31;;;;;;;32.35;20.35;;;;;;;10.23;49.47;100391.41;4973423;28;20082;-84
2023/04/10 01:55:03;;;;;;;32.00;20.55;;;;;;;10.22;49.38;100394.97;4972972;28;20059;-84
2023/04/10 01:57:31;;;;;;;33.10;20.35;;;;;;;10.20;49.37;100385.44;4955897;28;20424;-84
2023/04/10 02:00:08;;;;;;;32.95;20.70;;;;;;;10.19;49.39;100389.84;4973401;28;20054;-84
2023/04/10 02:02:36;;;;;;;36.20;21.20;;;;;;;10.17;49.14;100386.44;4973302;28;20109;-85
2023/04/10 02:05:11;;;;;;;34.92;21.92;;;;;;;10.14;49.42;100392.66;4955825;28;20059;-84
2023/04/10 02:08:16;;;;;;;34.63;22.35;;;;;;;10.07;49.83;100386.00;4971444;28;20050;-85
2023/04/10 02:11:01;;;;;;;30.90;20.33;;;;;;;10.07;50.08;100388.63;4956719;28;20134;-84
2023/04/10 02:13:31;;;;;;;30.55;19.63;;;;;;;10.08;49.59;100382.44;4955587;28;20057;-84
2023/04/10 02:16:03;;;;;;;34.13;20.60;;;;;;;10.06;49.87;100386.91;4972687;28;20206;-84
2023/04/10 02:18:44;;;;;;;31.40;19.65;;;;;;;10.04;49.91;100380.88;4972779;28;20059;-85
2023/04/10 02:21:24;;;;;;;33.08;19.88;;;;;;;10.03;49.85;100377.38;4956654;28;20054;-84
2023/04/10 02:23:57;;;;;;;35.60;21.42;;;;;;;10.02;49.59;100377.47;4973092;28;20113;-84
2023/04/10 02:26:27;;;;;;;33.88;20.80;;;;;;;9.99;50.19;100373.16;4972681;28;20058;-84
2023/04/10 02:28:56;;;;;;;33.05;20.55;;;;;;;9.98;50.03;100379.34;4955099;28;20488;-84
2023/04/10 02:31:25;;;;;;;32.83;20.52;;;;;;;9.97;50.12;100380.28;4972614;28;20615;-84
2023/04/10 02:33:53;;;;;;;33.47;20.17;;;;;;;9.95;50.08;100366.38;4955860;28;20121;-84
2023/04/10 02:36:27;;;;;;;30.17;18.40;;;;;;;9.95;50.02;100376.88;4955252;28;20058;-84
2023/04/10 02:38:57;;;;;;;;;;;;;;;9.95;50.20;100366.38;4972816;28;20047;-84
2023/04/10 02:41:25;;;;;;;24.90;15.57;;;;;;;9.99;49.76;100359.19;4972540;28;19922;-84
2023/04/10 02:44:06;;;;;;;30.98;18.05;;;;;;;9.92;50.30;100369.13;4971690;28;20065;-84
2023/04/10 02:46:48;;;;;;;28.60;17.63;;;;;;;9.92;50.46;100363.84;4955465;28;20062;-84
2023/04/10 02:49:42;;;;;;;31.58;18.35;;;;;;;9.89;50.34;100359.59;4893282;29;20124;-85
2023/04/10 02:52:50;;;;;;;;;;;;;;;;;;;;;
2023/04/10 02:55:46;;;;;;;31.13;18.58;;;;;;;9.89;50.22;100358.72;4765040;30;20063;-85
2023/04/10 02:58:44;;;;;;;27.40;17.33;;;;;;;9.89;50.17;100371.88;4747284;30;20048;-85
2023/04/10 03:01:51;;;;;;;;;;;;;;;;;;;;;
2023/04/10 03:04:20;;;;;;;23.42;15.15;;;;;;;9.89;49.84;100351.72;4747785;30;20013;-85
2023/04/10 03:07:19;;;;;;;27.63;17.20;;;;;;;9.86;50.46;100358.84;4731886;30;20064;-85
2023/04/10 03:10:07;;;;;;;27.10;16.63;;;;;;;9.84;50.09;100344.94;4786094;29;20119;-85
2023/04/10 03:12:37;;;;;;;28.85;17.73;;;;;;;9.83;50.25;100345.88;4816451;29;20087;-84
2023/04/10 03:15:04;;;;;;;28.95;17.77;;;;;;;9.80;50.25;100338.97;4853249;29;20446;-84
2023/04/10 03:17:31;;;;;;;30.48;18.48;;;;;;;9.80;50.42;100341.59;4892713;29;20063;-84
2023/04/10 03:19:58;;;;;;;30.90;18.00;;;;;;;9.76;50.30;100338.22;4892870;29;20068;-84
2023/04/10 03:22:26;;;;;;;31.30;18.75;;;;;;;9.76;50.45;100338.22;4892888;29;20096;-84
2023/04/10 03:24:59;;;;;;;33.55;20.17;;;;;;;9.75;50.22;100341.78;4955890;28;20070;-84
2023/04/10 03:27:25;;;;;;;34.80;19.40;;;;;;;9.73;50.43;100337.53;4971121;28;20073;-84
2023/04/10 03:29:52;;;;;;;28.17;18.17;;;;;;;9.72;50.53;100339.28;4971793;28;20138;-84
2023/04/10 03:32:41;;;;;;;;;;;;;;;;;;;;;
2023/04/10 03:35:12;;;;;;;30.65;18.05;;;;;;;9.72;50.20;100331.41;4971240;28;20110;-84
2023/04/10 03:37:38;;;;;;;29.25;17.98;;;;;;;9.73;50.24;100330.50;4969975;28;20069;-84
2023/04/10 03:40:10;;;;;;;30.10;18.55;;;;;;;9.72;50.57;100336.66;4970147;28;20059;-84
2023/04/10 03:42:41;;;;;;;31.08;18.10;;;;;;;9.72;50.18;100318.25;4971511;28;20141;-84
2023/04/10 03:45:08;;;;;;;31.70;17.98;;;;;;;9.72;50.02;100318.25;4970941;28;20145;-84
2023/04/10 03:47:35;;;;;;;30.17;18.23;;;;;;;9.70;50.26;100314.84;4970930;28;20537;-83
2023/04/10 03:50:02;;;;;;;31.40;19.35;;;;;;;9.71;50.26;100315.69;4971154;28;20178;-84
2023/04/10 03:52:30;;;;;;;27.00;16.65;;;;;;;9.71;50.33;100320.94;4971411;28;20054;-83
2023/04/10 03:54:58;;;;;;;27.77;17.58;;;;;;;9.70;50.31;100325.38;4970965;28;20059;-84
2023/04/10 03:57:27;;;;;;;30.63;18.25;;;;;;;9.70;50.57;100320.13;4967086;28;20424;-84
2023/04/10 03:59:54;;;;;;;27.42;17.10;;;;;;;9.71;50.32;100323.56;4970723;28;20061;-84
2023/04/10 04:02:23;;;;;;;28.80;18.45;;;;;;;9.69;50.25;100321.03;4970385;28;20760;-84
2023/04/10 04:04:49;;;;;;;26.55;16.98;;;;;;;9.69;50.39;100321.03;4970633;28;20086;-83
2023/04/10 04:07:16;;;;;;;28.73;17.90;;;;;;;9.71;50.39;100323.56;4970718;28;20137;-84
2023/04/10 04:09:43;;;;;;;25.63;17.02;;;;;;;9.71;50.40;100328.84;4970865;28;20059;-84
2023/04/10 04:14:52;;;;;;;28.90;17.98;;;;;;;9.73;50.24;100329.63;4930002;26;20405;-79
2023/04/10 04:17:18;;;;;;;27.83;17.63;;;;;;;9.72;50.06;100331.41;4932892;29;20048;-80
2023/04/10 04:19:45;;;;;;;27.95;17.25;;;;;;;9.74;50.31;100328.72;4931372;29;20059;-80
2023/04/10 04:22:11;;;;;;;29.45;18.05;;;;;;;9.75;50.30;100328.66;4932369;29;20062;-79
2023/04/10 04:24:37;;;;;;;27.63;17.10;;;;;;;9.78;50.02;100332.91;4932207;29;20107;-80
2023/04/10 04:27:04;;;;;;;28.77;17.00;;;;;;;9.79;50.26;100329.34;4922075;29;20055;-80
2023/04/10 04:29:31;;;;;;;28.92;17.23;;;;;;;9.80;50.22;100340.75;4931874;29;20052;-79
2023/04/10 04:31:57;;;;;;;24.30;16.30;;;;;;;9.81;50.11;100334.56;4932886;29;20071;-79
2023/04/10 04:34:24;;;;;;;27.58;16.08;;;;;;;9.81;49.83;100329.28;4931600;29;20055;-79
2023/04/10 04:36:51;;;;;;;26.20;17.25;;;;;;;9.81;49.96;100331.91;4929824;29;20055;-79
2023/04/10 04:39:17;;;;;;;23.50;16.30;;;;;;;9.81;49.94;100332.78;4931650;29;20071;-80
2023/04/10 04:41:44;;;;;;;23.05;15.98;;;;;;;9.80;49.94;100330.22;4932461;29;20070;-80
2023/04/10 04:44:10;;;;;;;25.30;16.05;;;;;;;9.78;50.15;100328.53;4931723;29;20056;-79
2023/04/10 04:46:37;;;;;;;24.35;15.68;;;;;;;9.76;49.82;100329.50;4930338;29;20055;-79
2023/04/10 04:49:03;;;;;;;28.23;16.88;;;;;;;9.75;50.07;100331.28;4931685;29;20052;-80
2023/04/10 04:51:30;;;;;;;29.75;15.95;;;;;;;9.74;49.92;100329.56;4930607;29;20090;-80
2023/04/10 04:53:56;;;;;;;25.35;15.55;;;;;;;9.72;50.04;100327.94;4930987;29;20098;-79
2023/04/10 04:56:23;;;;;;;27.50;17.10;;;;;;;9.71;50.17;100327.06;4931427;29;20071;-79
2023/04/10 04:58:49;;;;;;;26.10;15.95;;;;;;;9.69;50.05;100321.03;4935082;29;20056;-79
2023/04/10 05:01:16;;;;;;;23.55;15.43;;;;;;;9.68;50.22;100321.09;4936895;29;20048;-80
2023/04/10 05:03:43;;;;;;;22.55;15.40;;;;;;;9.68;50.23;100319.31;4932787;29;20591;-80
2023/04/10 05:06:09;;;;;;;25.75;14.70;;;;;;;9.67;49.96;100314.13;4932519;29;20115;-79
2023/04/10 05:08:36;;;;;;;24.25;15.13;;;;;;;9.68;50.35;100310.59;4932973;29;20059;-77
2023/04/10 05:11:02;;;;;;;26.30;16.67;;;;;;;9.66;50.48;100315.91;4933088;29;20056;-80
2023/04/10 05:13:29;;;;;;;27.17;16.55;;;;;;;9.65;50.48;100306.31;4933439;29;20071;-79
2023/04/10 05:15:56;;;;;;;26.20;16.10;;;;;;;9.64;50.40;100308.09;4936184;29;20061;-79
2023/04/10 05:18:22;;;;;;;25.80;15.07;;;;;;;9.64;50.33;100310.72;4936230;29;20055;-79
2023/04/10 05:20:49;;;;;;;23.00;15.15;;;;;;;9.64;50.48;100307.22;4936644;29;20571;-80
2023/04/10 05:23:16;;;;;;;23.70;15.27;;;;;;;9.66;50.73;100308.03;4935398;29;20055;-79
2023/04/10 05:25:42;;;;;;;22.13;14.48;;;;;;;9.67;50.57;100304.47;4918182;29;20044;-79
2023/04/10 05:28:09;;;;;;;22.25;14.52;;;;;;;9.70;50.48;100311.38;4919276;29;20066;-79
2023/04/10 05:30:35;;;;;;;21.70;13.68;;;;;;;9.73;50.88;100311.25;4935890;29;20508;-80
2023/04/10 05:33:02;;;;;;;21.60;14.23;;;;;;;9.76;50.65;100313.75;4939127;29;20504;-80
2023/04/10 05:35:29;;;;;;;20.25;14.60;;;;;;;9.81;50.67;100317.00;4939192;29;20508;-79
2023/04/10 05:37:55;;;;;;;20.02;13.88;;;;;;;9.85;50.94;100313.31;4936053;29;20054;-79
2023/04/10 05:40:22;;;;;;;20.25;14.23;;;;;;;9.89;50.82;100314.03;4934930;29;20058;-80
2023/04/10 05:42:49;;;;;;;21.75;14.70;;;;;;;9.94;51.05;100306.78;4938111;29;20690;-79
2023/04/10 05:45:15;;;;;;;21.17;14.27;;;;;;;9.99;51.05;100315.31;4947112;29;20058;-79
2023/04/10 05:47:42;;;;;;;19.45;13.10;;;;;;;10.04;50.79;100308.06;4952660;29;20051;-79
2023/04/10 05:50:09;;;;;;;20.30;13.13;;;;;;;10.09;51.25;100310.47;4954575;29;20082;-79
2023/04/10 05:52:35;;;;;;;20.40;13.88;;;;;;;10.14;50.94;100311.13;4954803;29;20134;-79
2023/04/10 05:55:02;;;;;;;19.63;12.98;;;;;;;10.20;50.91;100307.34;4954248;29;20400;-79
2023/04/10 05:57:29;;;;;;;18.50;12.95;;;;;;;10.25;51.02;100315.03;4954352;29;20693;-79
2023/04/10 05:59:56;;;;;;;18.48;12.10;;;;;;;10.28;50.77;100302.59;4954468;28;20051;-79
2023/04/10 06:02:23;;;;;;;17.55;11.63;;;;;;;10.33;50.85;100304.16;4954643;28;20069;-79
2023/04/10 06:04:50;;;;;;;15.85;11.80;;;;;;;10.35;50.68;100303.16;4953312;29;20452;-80
2023/04/10 06:07:17;;;;;;;18.05;12.50;;;;;;;10.41;50.57;100302.00;4953614;29;20058;-79
2023/04/10 06:09:43;;;;;;;17.67;11.40;;;;;;;10.42;50.44;100298.44;4954876;29;20102;-79
2023/04/10 06:12:10;;;;;;;14.48;10.73;;;;;;;10.45;50.43;100293.06;4954613;29;20058;-79
2023/04/10 06:14:37;;;;;;;16.17;11.10;;;;;;;10.48;50.21;100292.94;4954606;29;20047;-79
2023/04/10 06:17:03;;;;;;;13.02;9.63;;;;;;;10.50;50.30;100285.81;4953808;29;20057;-78
2023/04/10 06:19:30;;;;;;;16.75;10.88;;;;;;;10.52;50.23;100286.59;4955050;28;20051;-80
2023/04/10 06:21:56;;;;;;;15.00;10.23;;;;;;;10.56;50.23;100289.94;4954377;29;20086;-79
2023/04/10 06:24:23;;;;;;;13.93;9.63;;;;;;;10.59;50.12;100283.66;4954180;28;20093;-79
2023/04/10 06:26:49;;;;;;;14.80;9.73;;;;;;;10.63;49.98;100287.84;4953804;29;20059;-80
2023/04/10 06:29:16;;;;;;;13.48;9.50;;;;;;;10.66;50.10;100290.34;4954390;29;20055;-79
2023/04/10 06:31:43;;;;;;;16.02;10.32;;;;;;;10.71;50.28;100284.84;4940385;28;20048;-79
2023/04/10 06:34:09;;;;;;;14.63;9.88;;;;;;;10.76;50.14;100280.22;4934712;29;20413;-79
2023/04/10 06:36:36;;;;;;;13.65;9.55;;;;;;;10.81;50.24;100279.03;4931759;29;20044;-79
2023/04/10 06:39:03;;;;;;;15.98;9.65;;;;;;;10.88;50.35;100279.56;4941492;28;20051;-79
2023/04/10 06:41:30;;;;;;;12.00;8.75;;;;;;;10.96;50.10;100279.22;4933671;29;20059;-79
2023/04/10 06:43:56;;;;;;;15.13;9.80;;;;;;;11.04;50.13;100281.47;4933372;29;20082;-79
2023/04/10 06:46:23;;;;;;;13.93;10.20;;;;;;;11.13;50.01;100278.34;4931514;29;20061;-78
2023/04/10 06:48:49;;;;;;;14.55;9.93;;;;;;;11.21;49.86;100276.19;4933352;29;20135;-78
2023/04/10 06:51:16;;;;;;;14.98;9.75;;;;;;;11.32;49.90;100272.13;4928736;29;20094;-79
2023/04/10 06:53:42;;;;;;;14.13;9.98;;;;;;;11.40;49.53;100266.47;4941231;29;20048;-79
2023/04/10 06:56:09;;;;;;;13.40;9.00;;;;;;;11.53;49.65;100267.53;4933664;29;20044;-79
2023/04/10 06:58:36;;;;;;;12.55;9.18;;;;;;;11.62;49.76;100263.53;4933400;29;20078;-78
2023/04/10 07:01:03;;;;;;;14.20;9.15;;;;;;;11.71;49.49;100251.66;4933930;29;20054;-79
2023/04/10 07:03:31;;;;;;;13.90;9.85;;;;;;;11.82;49.39;100251.06;4933856;29;20097;-79
2023/04/10 07:05:59;;;;;;;12.73;9.07;;;;;;;11.93;49.44;100245.22;4933349;29;20052;-79
2023/04/10 07:08:25;;;;;;;13.30;9.82;;;;;;;12.03;49.24;100242.94;4933971;29;20560;-80
2023/04/10 07:10:52;;;;;;;12.55;9.52;;;;;;;12.14;49.12;100235.28;4933832;29;20063;-79
2023/04/10 07:13:18;;;;;;;12.75;9.60;;;;;;;12.27;48.99;100239.88;4942039;29;20047;-79
2023/04/10 07:15:45;;;;;;;13.82;9.73;;;;;;;12.36;48.81;100240.22;4934081;29;20055;-80
2023/04/10 07:18:11;;;;;;;12.70;9.55;;;;;;;12.48;48.76;100230.72;4917374;29;20098;-79
2023/04/10 07:20:38;;;;;;;12.07;9.10;;;;;;;12.59;48.38;100224.81;4934333;29;20150;-79
2023/04/10 07:23:04;;;;;;;12.13;9.05;;;;;;;12.71;48.43;100222.44;4934285;29;20055;-79
2023/04/10 07:25:32;;;;;;;12.45;9.43;;;;;;;12.82;48.28;100219.97;4933823;29;20511;-79
2023/04/10 07:27:58;;;;;;;12.73;9.07;;;;;;;12.95;48.47;100213.97;4933639;29;20064;-79
2023/04/10 07:30:25;;;;;;;11.95;9.13;;;;;;;13.07;48.34;100215.88;4932912;29;20055;-80
2023/04/10 07:32:52;;;;;;;12.80;9.70;;;;;;;13.19;48.34;100208.16;4934091;29;20090;-80
2023/04/10 07:35:19;;;;;;;14.38;9.70;;;;;;;13.31;48.07;100210.06;4933283;29;20074;-77
2023/04/10 07:37:50;;;;;;;12.75;9.20;;;;;;;13.45;48.14;100201.25;4933740;29;20061;-80
2023/04/10 07:40:17;;;;;;;11.23;8.85;;;;;;;13.59;48.29;100203.09;4932820;29;20055;-78
2023/04/10 07:42:43;;;;;;;12.43;9.63;;;;;;;13.74;47.98;100203.91;4933958;29;20079;-80
2023/04/10 07:45:10;;;;;;;11.57;8.90;;;;;;;13.89;48.05;100204.75;4933830;29;20134;-80
2023/04/10 07:47:37;;;;;;;11.68;9.10;;;;;;;14.03;47.12;100208.28;4933851;29;20059;-80
2023/04/10 07:50:04;;;;;;;10.98;8.63;;;;;;;14.16;47.14;100203.91;4932493;29;20429;-80
2023/04/10 07:52:30;;;;;;;11.98;9.10;;;;;;;14.28;46.65;100204.91;4934071;29;20059;-78
2023/04/10 07:55:00;;;;;;;12.75;10.10;;;;;;;14.38;46.60;100191.91;4933448;29;20047;-78
2023/04/10 07:57:26;;;;;;;12.23;8.75;;;;;;;14.48;46.06;100196.59;4933673;29;20421;-80
2023/04/10 07:59:53;;;;;;;13.95;9.75;;;;;;;14.57;46.11;100185.38;4933931;29;20111;-78
2023/04/10 08:02:19;;;;;;;12.02;9.63;;;;;;;14.64;45.96;100173.41;4933728;29;20052;-78
2023/04/10 08:04:46;;;;;;;12.60;9.82;;;;;;;14.70;45.29;100167.69;4932268;29;20410;-78
2023/04/10 08:07:13;;;;;;;12.52;9.90;;;;;;;14.77;44.92;100169.97;4915994;29;20369;-77
2023/04/10 08:09:39;;;;;;;11.60;9.68;;;;;;;14.80;45.00;100159.16;4933845;29;20058;-78
2023/04/10 08:12:06;;;;;;;13.75;10.43;;;;;;;14.83;44.60;100170.41;4933481;29;20709;-78
2023/04/10 08:14:33;;;;;;;12.30;10.02;;;;;;;14.83;44.62;100156.28;4933537;29;20069;-77
2023/04/10 08:17:00;;;;;;;12.63;9.10;;;;;;;14.84;44.44;100153.53;4932953;29;20138;-78
2023/04/10 08:19:26;;;;;;;11.48;9.05;;;;;;;14.84;44.25;100145.59;4933507;29;20405;-77
2023/04/10 08:21:53;;;;;;;11.80;9.43;;;;;;;14.83;43.62;100143.91;4932781;29;20087;-78
2023/04/10 08:24:21;;;;;;;10.02;8.18;;;;;;;14.82;43.91;100134.25;4931063;29;20449;-77
2023/04/10 08:26:48;;;;;;;11.35;8.45;;;;;;;14.83;44.03;100135.09;4932525;29;20441;-77
2023/04/10 08:29:15;;;;;;;11.55;8.70;;;;;;;14.82;43.72;100130.75;4932878;29;20119;-77
2023/04/10 08:31:41;;;;;;;10.05;8.30;;;;;;;14.82;44.04;100122.78;4932580;29;20389;-77
2023/04/10 08:34:08;;;;;;;10.80;7.97;;;;;;;14.84;44.18;100118.25;4932582;29;20055;-77
2023/04/10 08:36:34;;;;;;;12.63;9.00;;;;;;;14.84;43.81;100120.91;4932249;29;20098;-77
2023/04/10 08:39:01;;;;;;;12.40;8.50;;;;;;;14.84;43.80;100120.91;4932999;29;20052;-77
2023/04/10 08:41:27;;;;;;;10.48;8.13;;;;;;;14.83;43.74;100116.53;4932796;29;20083;-80
2023/04/10 08:43:56;;;;;;;11.20;8.38;;;;;;;14.82;43.73;100109.53;4932718;29;20142;-78
2023/04/10 08:46:26;;;;;;;10.98;8.60;;;;;;;14.83;43.91;100103.28;4932703;29;20465;-80
2023/04/10 08:49:03;;;;;;;10.57;8.38;;;;;;;14.80;43.70;100098.22;4936549;29;20059;-77
2023/04/10 08:51:55;;;;;;;12.55;8.65;;;;;;;14.82;43.51;100106.91;4936544;29;20107;-77
2023/04/10 08:54:31;;;;;;;9.73;8.18;;;;;;;14.88;43.13;100095.03;4936471;29;20079;-77
2023/04/10 08:57:00;;;;;;;13.20;8.57;;;;;;;14.93;43.58;100093.75;4936105;29;20079;-77
2023/04/10 08:59:29;;;;;;;11.05;9.20;;;;;;;14.97;43.77;100095.25;4936108;29;20146;-77
2023/04/10 09:01:56;;;;;;;11.07;8.57;;;;;;;15.02;44.02;100088.75;4936150;29;20519;-80
2023/04/10 09:04:24;;;;;;;11.20;8.70;;;;;;;15.06;43.29;100092.91;4936841;29;20083;-79
2023/04/10 09:06:54;;;;;;;12.65;9.27;;;;;;;15.10;43.45;100087.25;4935196;29;20047;-81
2023/04/10 09:09:21;;;;;;;11.90;8.98;;;;;;;15.15;43.51;100080.78;4936676;29;20051;-79
2023/04/10 09:11:50;;;;;;;18.00;8.23;;;;;;;15.18;43.10;100086.69;4936921;29;20059;-78
2023/04/10 09:14:21;;;;;;;10.70;8.27;;;;;;;15.23;43.67;100073.97;4936627;29;20059;-78
2023/04/10 09:16:48;;;;;;;11.13;8.25;;;;;;;15.34;43.68;100075.00;4919189;29;20140;-78
2023/04/10 09:19:32;;;;;;;12.18;8.00;;;;;;;15.40;43.22;100066.59;4936324;29;20087;-77
2023/04/10 09:21:59;;;;;;;10.95;8.38;;;;;;;15.57;43.98;100075.13;4935451;29;20055;-79
2023/04/10 09:24:26;;;;;;;8.52;7.40;;;;;;;15.69;43.59;100068.94;4936306;29;20661;-78
2023/04/10 09:26:54;;;;;;;9.82;7.97;;;;;;;15.82;43.61;100058.25;4935653;29;20107;-78
2023/04/10 09:29:21;;;;;;;9.65;7.78;;;;;;;15.96;43.10;100054.59;4919050;29;20047;-78
2023/04/10 09:31:49;;;;;;;9.68;7.50;;;;;;;16.10;43.32;100050.03;4936630;29;20135;-79
2023/04/10 09:34:22;;;;;;;11.32;7.60;;;;;;;16.25;43.40;100053.34;4936186;29;20087;-80
2023/04/10 09:37:00;;;;;;;9.45;7.05;;;;;;;16.38;42.34;100042.63;4935694;29;20047;-78
2023/04/10 09:39:35;;;;;;;9.27;7.07;;;;;;;16.58;42.23;100045.53;4936087;29;20512;-79
2023/04/10 09:42:02;;;;;;;7.40;6.57;;;;;;;16.76;42.35;100030.84;4936127;29;20155;-79
2023/04/10 09:44:30;;;;;;;9.93;6.95;;;;;;;16.92;42.44;100042.91;4936136;29;20065;-79
2023/04/10 09:47:17;;;;;;;9.43;7.25;;;;;;;17.06;42.17;100029.41;4935536;29;20050;-79
2023/04/10 09:49:48;;;;;;;8.75;6.53;;;;;;;17.25;42.03;100027.91;4935744;29;20055;-79
2023/04/10 09:52:28;;;;;;;7.53;6.72;;;;;;;17.38;40.85;100026.91;4936417;29;20126;-79
2023/04/10 09:54:57;;;;;;;7.53;6.50;;;;;;;17.54;41.41;100022.00;4935740;29;20107;-79
2023/04/10 09:57:26;;;;;;;8.90;7.07;;;;;;;17.67;40.90;100023.66;4935405;29;20059;-78
2023/04/10 09:59:57;;;;;;;7.50;6.60;;;;;;;17.81;41.00;100023.38;4934811;29;20099;-79
2023/04/10 10:02:27;;;;;;;8.13;6.53;;;;;;;17.98;41.26;100023.75;4936152;29;20055;-78
2023/04/10 10:04:55;;;;;;;7.40;6.30;;;;;;;18.12;40.89;100019.94;4935623;29;20067;-80
2023/04/10 10:07:23;;;;;;;9.10;7.45;;;;;;;18.25;40.14;100013.59;4935546;29;20117;-78
2023/04/10 10:09:50;;;;;;;7.75;6.43;;;;;;;18.33;39.16;100011.97;4935745;29;20150;-79
2023/04/10 10:15:03;;;;;;;7.18;5.72;;;;;;;18.49;38.66;99991.97;4976922;23;20062;-83
2023/04/10 10:18:05;;;;;;;7.70;6.32;;;;;;;18.58;39.71;99988.50;4992951;28;20054;-83
2023/04/10 10:20:33;;;;;;;6.82;5.70;;;;;;;18.73;39.72;99974.81;4989168;28;20061;-83
2023/04/10 10:23:03;;;;;;;6.65;5.82;;;;;;;18.84;39.31;99980.03;4991507;28;20062;-83
2023/04/10 10:25:30;;;;;;;6.93;6.00;;;;;;;18.91;38.58;99982.97;4991308;28;20054;-83
2023/04/10 10:28:04;;;;;;;6.50;5.85;;;;;;;18.92;37.44;99976.69;4991952;28;20062;-84
2023/04/10 10:30:32;;;;;;;6.85;6.15;;;;;;;18.97;38.08;99970.94;4991778;28;20050;-83
2023/04/10 10:33:02;;;;;;;7.78;5.32;;;;;;;18.99;38.30;99959.13;4983279;28;20054;-84
2023/04/10 10:35:34;;;;;;;6.38;5.20;;;;;;;19.01;37.68;99962.53;4986596;28;20545;-83
2023/04/10 10:38:02;;;;;;;7.25;6.15;;;;;;;19.08;38.08;99960.19;4990450;28;20508;-83
2023/04/10 10:40:43;;;;;;;7.07;5.53;;;;;;;19.13;37.41;99954.41;4991454;28;20054;-83
2023/04/10 10:43:19;;;;;;;5.88;5.28;;;;;;;19.20;36.78;99952.03;4992554;28;20555;-83
2023/04/10 10:45:53;;;;;;;6.60;5.70;;;;;;;19.21;36.53;99949.22;4992324;28;20058;-83
2023/04/10 10:48:20;;;;;;;5.53;4.90;;;;;;;19.23;35.45;99943.75;4992274;28;20054;-83
2023/04/10 10:51:00;;;;;;;8.90;4.93;;;;;;;19.14;32.77;99937.44;4992412;28;20679;-83
2023/04/10 10:53:39;;;;;;;5.00;4.45;;;;;;;19.03;31.76;99935.72;4992377;28;20093;-83
2023/04/10 10:56:17;;;;;;;4.88;4.30;;;;;;;18.96;33.67;99929.25;4991917;28;20058;-83
2023/04/10 10:58:49;;;;;;;6.68;4.25;;;;;;;18.95;33.65;99916.88;4992155;28;20077;-83
2023/04/10 11:01:17;;;;;;;6.50;4.10;;;;;;;18.98;35.54;99908.59;4990193;28;20062;-83
2023/04/10 11:03:45;;;;;;;6.03;4.43;;;;;;;19.02;34.88;99892.19;4991903;28;20521;-83
2023/04/10 11:06:15;;;;;;;5.07;4.13;;;;;;;19.16;34.98;99902.59;4974431;28;20081;-83
2023/04/10 11:08:45;;;;;;;6.30;4.28;;;;;;;19.34;35.12;99892.06;4974487;28;20132;-83
2023/04/10 11:11:16;;;;;;;4.75;4.20;;;;;;;19.51;34.05;99904.69;4974755;28;20058;-83
2023/04/10 11:13:49;;;;;;;4.35;3.95;;;;;;;19.65;31.91;99884.72;4992059;28;20058;-83
2023/04/10 11:16:16;;;;;;;4.30;3.90;;;;;;;19.83;34.46;99875.97;4990243;28;20501;-83
2023/04/10 11:18:46;;;;;;;4.05;3.65;;;;;;;19.95;32.85;99881.16;4991644;28;20065;-83
2023/04/10 11:21:22;;;;;;;4.13;3.70;;;;;;;20.08;34.01;99870.16;4990580;28;20313;-83
2023/04/10 11:23:49;;;;;;;4.50;3.58;;;;;;;20.20;33.13;99873.47;4991763;28;20054;-83
2023/04/10 11:26:40;;;;;;;3.88;3.47;;;;;;;20.18;30.16;99863.78;4991532;28;20145;-83
2023/04/10 11:29:16;;;;;;;4.50;3.90;;;;;;;20.25;31.04;99869.38;4990468;28;20054;-83
2023/04/10 11:31:44;;;;;;;4.55;3.33;;;;;;;20.33;33.39;99855.25;4991822;28;20050;-83
2023/04/10 11:34:11;;;;;;;3.92;3.50;;;;;;;20.37;33.43;99848.63;4990413;28;20058;-83
2023/04/10 11:36:39;;;;;;;4.20;3.22;;;;;;;20.49;33.09;99843.06;4990562;28;20058;-83
2023/04/10 11:39:14;;;;;;;3.90;3.17;;;;;;;20.62;32.87;99830.19;4991731;28;20058;-83
2023/04/10 11:41:45;;;;;;;3.65;3.13;;;;;;;20.87;33.18;99826.91;4974248;28;20398;-83